Time;durP1;ratioP1;P1;durP2;ratioP2;P2;SDS_P1;SDS_P2;PMS_P1;PMS_P2;Temp;Humidity;BMP_temperature;BMP_pressure;BME280_temperature;BME280_humidity;BME280_pressure;Samples;Min_cycle;Max_cycle;Signal;HPM_P1;HPM_P2
2022/06/04 00:00:30;;;;;;;5.07;1.67;;;24.90;99.90;;;;;;5012408;23;20142;-53
2022/06/04 00:02:57;;;;;;;7.07;1.92;;;24.80;99.90;;;;;;5011769;28;20076;-53
2022/06/04 00:05:27;;;;;;;5.50;1.77;;;24.80;99.90;;;;;;5011891;28;20034;-52
2022/06/04 00:07:57;;;;;;;4.57;1.88;;;24.80;99.90;;;;;;5012353;28;20942;-55
2022/06/04 00:15:59;;;;;;;2.90;1.73;;;24.80;99.90;;;;;;5012156;28;20080;-53
2022/06/04 00:18:26;;;;;;;11.13;1.65;;;24.80;99.90;;;;;;5012800;28;20034;-55
2022/06/04 00:20:53;;;;;;;5.88;1.58;;;24.80;99.90;;;;;;5012078;28;20073;-55
2022/06/04 00:23:22;;;;;;;6.70;2.40;;;24.80;99.90;;;;;;5010730;28;20118;-54
2022/06/04 00:25:50;;;;;;;4.32;1.52;;;24.70;99.90;;;;;;5011675;28;20030;-53
2022/06/04 00:28:19;;;;;;;4.68;1.85;;;24.70;99.90;;;;;;5012446;28;20026;-52
2022/06/04 00:30:45;;;;;;;5.10;1.50;;;24.70;99.90;;;;;;5012696;28;20018;-53
2022/06/04 00:33:11;;;;;;;6.05;1.95;;;24.70;99.90;;;;;;5017584;28;20026;-54
2022/06/04 00:35:37;;;;;;;4.70;1.48;;;24.70;99.90;;;;;;5015564;28;20079;-54
2022/06/04 00:38:04;;;;;;;7.53;1.70;;;24.70;99.90;;;;;;5015745;28;20042;-53
2022/06/04 00:40:33;;;;;;;5.80;1.40;;;24.70;99.90;;;;;;5015460;28;20026;-54
2022/06/04 00:42:59;;;;;;;6.82;1.50;;;24.60;99.90;;;;;;5015369;28;20037;-54
2022/06/04 00:45:34;;;;;;;5.75;1.20;;;24.60;99.90;;;;;;5015487;28;20022;-53
2022/06/04 00:48:01;;;;;;;7.15;1.30;;;24.60;99.90;;;;;;5015347;28;20022;-54
2022/06/04 00:50:29;;;;;;;6.43;1.92;;;24.50;99.90;;;;;;5015257;28;20087;-54
2022/06/04 00:52:57;;;;;;;5.00;1.63;;;24.50;99.90;;;;;;5015244;28;20482;-54
2022/06/04 00:55:24;;;;;;;4.22;1.55;;;24.50;99.90;;;;;;5013835;28;20030;-54
2022/06/04 00:58:27;;;;;;;3.28;1.42;;;24.40;99.90;;;;;;5015109;28;20041;-54
2022/06/04 01:01:23;;;;;;;5.75;1.50;;;24.40;99.90;;;;;;5026107;23;20085;-62
2022/06/04 01:04:00;;;;;;;10.23;1.73;;;24.40;99.90;;;;;;5015126;28;20042;-62
2022/06/04 01:06:41;;;;;;;3.20;1.20;;;24.30;99.90;;;;;;5015089;28;20064;-63
2022/06/04 01:09:24;;;;;;;5.28;1.67;;;24.30;99.90;;;;;;5015110;28;20075;-61
2022/06/04 01:12:11;;;;;;;6.00;1.30;;;24.30;99.90;;;;;;5014792;28;20430;-60
2022/06/04 01:15:07;;;;;;;7.00;1.67;;;24.30;99.90;;;;;;5014963;28;20543;-62
2022/06/04 01:17:42;;;;;;;6.88;1.73;;;24.20;99.90;;;;;;5014845;28;20042;-62
2022/06/04 01:20:21;;;;;;;3.67;0.95;;;24.20;99.90;;;;;;5014959;28;20076;-61
2022/06/04 01:23:09;;;;;;;6.15;1.90;;;24.20;99.90;;;;;;5014706;28;20018;-62
2022/06/04 01:25:37;;;;;;;7.45;1.60;;;24.10;99.90;;;;;;5014763;28;20026;-61
2022/06/04 01:28:15;;;;;;;5.97;1.60;;;24.10;99.90;;;;;;5013329;28;20491;-61
2022/06/04 01:30:48;;;;;;;5.53;1.48;;;24.10;99.90;;;;;;5014597;28;20029;-61
2022/06/04 01:33:21;;;;;;;4.25;1.10;;;24.00;99.90;;;;;;5014505;28;20025;-61
2022/06/04 01:36:06;;;;;;;5.85;2.35;;;24.00;99.90;;;;;;5014495;28;20041;-61
2022/06/04 01:38:34;;;;;;;4.10;1.25;;;24.00;99.90;;;;;;5014378;28;20026;-61
2022/06/04 01:41:07;;;;;;;5.22;1.00;;;24.00;99.90;;;;;;5013078;28;20037;-60
2022/06/04 01:43:39;;;;;;;6.18;1.48;;;24.00;99.90;;;;;;5013595;28;20022;-60
2022/06/04 01:46:16;;;;;;;4.57;1.15;;;23.90;99.90;;;;;;5014304;28;20021;-61
2022/06/04 01:48:45;;;;;;;8.23;1.48;;;23.90;99.90;;;;;;5014294;28;20026;-61
2022/06/04 01:51:18;;;;;;;6.22;1.67;;;23.80;99.90;;;;;;5014146;28;20026;-62
2022/06/04 01:53:45;;;;;;;3.55;0.93;;;23.80;99.90;;;;;;5014166;28;20393;-62
2022/06/04 01:56:16;;;;;;;;;;;23.80;99.90;;;;;;5014567;28;20426;-60
2022/06/04 01:58:50;;;;;;;4.63;1.08;;;23.80;99.90;;;;;;5014032;28;19919;-61
2022/06/04 02:01:22;;;;;;;4.45;1.30;;;23.70;99.90;;;;;;5014566;28;20221;-61
2022/06/04 02:03:57;;;;;;;6.75;1.23;;;23.70;99.90;;;;;;5013841;28;20022;-61
2022/06/04 02:07:29;;;;;;;6.32;1.73;;;23.70;99.90;;;;;;5013906;28;20060;-60
2022/06/04 02:09:36;;;;;;;5.60;1.60;;;23.70;99.90;;;;;;5013727;28;20053;-61
2022/06/04 02:12:04;;;;;;;6.53;1.88;;;23.70;99.90;;;;;;5013735;28;20452;-61
2022/06/04 02:14:30;;;;;;;3.83;0.88;;;23.60;99.90;;;;;;5013743;28;20026;-61
2022/06/04 02:17:05;;;;;;;6.25;1.60;;;23.60;99.90;;;;;;5013575;28;20388;-62
2022/06/04 02:19:31;;;;;;;4.03;1.13;;;23.60;99.90;;;;;;5013779;28;20504;-60
2022/06/04 02:21:56;;;;;;;5.82;1.38;;;23.50;99.90;;;;;;5013552;28;20061;-61
2022/06/04 02:24:23;;;;;;;5.97;1.20;;;23.50;99.90;;;;;;5013490;28;20034;-60
2022/06/04 02:26:48;;;;;;;5.40;1.02;;;23.50;99.90;;;;;;5013549;28;20030;-60
2022/06/04 02:29:15;;;;;;;5.72;1.08;;;23.50;99.90;;;;;;5013335;28;20072;-60
2022/06/04 02:31:44;;;;;;;5.60;1.50;;;23.50;99.90;;;;;;5013726;28;20061;-60
2022/06/04 02:34:29;;;;;;;5.60;1.08;;;23.40;99.90;;;;;;5013569;28;20022;-60
2022/06/04 02:37:17;;;;;;;6.25;1.58;;;23.50;99.90;;;;;;5013252;28;20034;-61
2022/06/04 02:39:49;;;;;;;2.45;0.93;;;23.40;99.90;;;;;;5013250;28;20037;-61
2022/06/04 02:42:30;;;;;;;5.55;1.17;;;23.40;99.90;;;;;;5013268;28;20029;-60
2022/06/04 02:45:14;;;;;;;4.65;1.38;;;23.50;99.90;;;;;;5013143;28;20045;-61
2022/06/04 02:47:53;;;;;;;8.10;1.02;;;23.40;99.90;;;;;;5013194;28;20033;-61
2022/06/04 02:50:27;;;;;;;3.50;1.13;;;23.40;99.90;;;;;;5013115;28;20109;-60
2022/06/04 02:52:55;;;;;;;8.48;1.27;;;23.40;99.90;;;;;;5013045;28;20030;-61
2022/06/04 02:55:29;;;;;;;5.60;1.92;;;23.40;99.90;;;;;;5012932;28;20026;-62
2022/06/04 02:58:00;;;;;;;3.53;1.00;;;23.40;99.90;;;;;;5013044;28;20050;-61
2022/06/04 03:00:27;;;;;;;4.05;1.25;;;23.40;99.90;;;;;;5013247;28;20053;-62
2022/06/04 03:02:53;;;;;;;4.97;0.75;;;23.40;99.90;;;;;;5012854;28;20025;-61
2022/06/04 03:05:24;;;;;;;2.63;1.10;;;23.40;99.90;;;;;;5012875;28;20033;-61
2022/06/04 03:07:54;;;;;;;2.47;0.95;;;23.40;99.90;;;;;;5012712;28;20033;-61
2022/06/04 03:10:26;;;;;;;5.05;1.23;;;23.40;99.90;;;;;;5012717;28;20493;-61
2022/06/04 03:12:52;;;;;;;3.92;0.90;;;23.40;99.90;;;;;;5012663;28;20038;-62
2022/06/04 03:15:19;;;;;;;4.72;0.90;;;23.40;99.90;;;;;;5012588;28;20025;-61
2022/06/04 03:17:46;;;;;;;4.10;1.40;;;23.30;99.90;;;;;;5012827;28;20106;-61
2022/06/04 03:20:15;;;;;;;5.45;1.08;;;23.30;99.90;;;;;;5011324;28;20478;-62
2022/06/04 03:22:41;;;;;;;6.65;1.10;;;23.30;99.90;;;;;;5011219;28;20136;-62
2022/06/04 03:25:07;;;;;;;5.30;0.90;;;23.30;99.90;;;;;;5012344;28;20105;-63
2022/06/04 03:27:33;;;;;;;5.63;1.00;;;23.30;99.90;;;;;;5012469;28;20058;-62
2022/06/04 03:29:59;;;;;;;10.52;1.17;;;23.30;99.90;;;;;;5012403;28;20504;-63
2022/06/04 03:32:25;;;;;;;4.75;1.05;;;23.30;99.90;;;;;;5012242;28;20060;-63
2022/06/04 03:34:51;;;;;;;5.57;0.80;;;23.30;99.90;;;;;;5012296;28;20018;-64
2022/06/04 03:37:16;;;;;;;2.92;0.82;;;23.30;99.90;;;;;;5012248;28;20041;-63
2022/06/04 03:39:42;;;;;;;3.30;0.80;;;23.30;99.90;;;;;;5012337;28;20377;-63
2022/06/04 03:42:08;;;;;;;3.42;1.15;;;23.30;99.90;;;;;;5012061;28;20052;-63
2022/06/04 03:44:34;;;;;;;3.50;0.80;;;23.20;99.90;;;;;;5011884;28;20095;-63
2022/06/04 03:47:00;;;;;;;4.43;1.25;;;23.20;99.90;;;;;;5011963;28;20022;-63
2022/06/04 03:49:26;;;;;;;2.70;1.00;;;23.20;99.90;;;;;;5012074;28;20026;-61
2022/06/04 03:51:52;;;;;;;2.97;1.10;;;23.10;99.90;;;;;;5011982;28;20382;-62
2022/06/04 03:54:52;;;;;;;4.32;0.80;;;23.10;99.90;;;;;;5012391;28;20061;-62
2022/06/04 03:59:53;;;;;;;4.40;0.73;;;23.10;99.90;;;;;;5020660;23;21642;-53
2022/06/04 04:02:19;;;;;;;3.72;1.25;;;23.00;99.90;;;;;;4992851;28;20046;-53
2022/06/04 04:04:45;;;;;;;2.03;0.85;;;23.10;99.90;;;;;;4992552;28;20018;-54
2022/06/04 04:07:11;;;;;;;3.72;1.08;;;23.10;99.90;;;;;;4991714;28;20516;-54
2022/06/04 04:09:36;;;;;;;3.88;1.02;;;23.10;99.90;;;;;;4992107;28;20049;-54
2022/06/04 04:12:02;;;;;;;2.90;1.05;;;23.10;99.90;;;;;;4989058;28;20470;-54
2022/06/04 04:14:28;;;;;;;3.95;1.08;;;23.10;99.90;;;;;;4986854;28;20382;-55
2022/06/04 04:16:54;;;;;;;6.05;1.65;;;23.10;99.90;;;;;;4980684;28;20034;-53
2022/06/04 04:19:22;;;;;;;5.47;0.90;;;23.10;99.90;;;;;;4986921;28;20034;-53
2022/06/04 04:21:47;;;;;;;6.20;1.20;;;23.10;99.90;;;;;;4992259;28;20026;-54
2022/06/04 04:24:14;;;;;;;3.72;0.70;;;23.10;99.90;;;;;;4991996;28;20037;-55
2022/06/04 04:26:40;;;;;;;3.20;0.90;;;23.20;99.90;;;;;;4992034;28;20032;-55
2022/06/04 04:29:06;;;;;;;4.65;0.98;;;23.30;99.90;;;;;;4991630;28;20429;-55
2022/06/04 04:31:35;;;;;;;4.20;1.30;;;23.30;99.90;;;;;;4990362;28;20014;-54
2022/06/04 04:34:01;;;;;;;3.53;0.80;;;23.30;99.90;;;;;;4991301;28;20350;-54
2022/06/04 04:36:30;;;;;;;5.63;0.80;;;23.40;99.90;;;;;;4990792;28;20026;-54
2022/06/04 04:38:56;;;;;;;3.15;1.35;;;23.40;99.90;;;;;;4990961;28;20378;-54
2022/06/04 04:41:23;;;;;;;3.72;1.40;;;23.40;99.90;;;;;;4991871;28;20112;-53
2022/06/04 04:43:49;;;;;;;3.15;0.88;;;23.50;99.90;;;;;;4990548;28;20486;-53
2022/06/04 04:46:17;;;;;;;2.83;1.20;;;23.50;99.90;;;;;;4990453;28;20030;-52
2022/06/04 04:48:44;;;;;;;3.08;0.95;;;23.50;99.90;;;;;;4991705;28;20034;-52
2022/06/04 04:51:19;;;;;;;3.10;1.20;;;23.50;99.90;;;;;;4990548;28;20034;-53
2022/06/04 04:53:47;;;;;;;4.10;1.17;;;23.50;99.90;;;;;;4974827;28;20030;-53
2022/06/04 04:56:17;;;;;;;2.85;1.00;;;23.50;99.90;;;;;;4991723;28;20109;-53
2022/06/04 04:58:44;;;;;;;4.50;1.35;;;23.50;99.90;;;;;;4991506;28;20041;-53
2022/06/04 05:01:24;;;;;;;4.38;1.10;;;23.50;99.90;;;;;;4991456;28;20046;-53
2022/06/04 05:03:50;;;;;;;4.07;0.73;;;23.50;99.90;;;;;;4990403;28;20469;-54
2022/06/04 05:06:18;;;;;;;5.50;1.08;;;23.50;99.90;;;;;;4990297;28;20027;-55
2022/06/04 05:08:44;;;;;;;3.03;0.98;;;23.50;99.90;;;;;;4991506;28;20104;-56
2022/06/04 05:11:14;;;;;;;2.53;1.33;;;23.60;99.90;;;;;;4991541;28;20027;-55
2022/06/04 05:13:40;;;;;;;5.70;1.40;;;23.60;99.90;;;;;;4991536;28;20058;-56
2022/06/04 05:16:06;;;;;;;6.30;1.23;;;23.60;99.90;;;;;;4991532;28;20093;-54
2022/06/04 05:18:32;;;;;;;3.80;1.33;;;23.50;99.90;;;;;;4993150;28;20034;-54
2022/06/04 05:21:20;;;;;;;4.75;1.42;;;23.60;99.90;;;;;;4993861;28;20050;-54
2022/06/04 05:23:45;;;;;;;;;;;23.60;99.90;;;;;;4995444;28;20081;-55
2022/06/04 05:26:11;;;;;;;6.07;1.20;;;23.60;99.90;;;;;;4995044;28;19906;-55
2022/06/04 05:28:37;;;;;;;3.03;1.15;;;23.60;99.90;;;;;;4994956;28;20034;-55
2022/06/04 05:31:03;;;;;;;3.83;1.08;;;23.60;99.90;;;;;;4994904;28;20030;-54
2022/06/04 05:33:29;;;;;;;4.25;0.95;;;23.70;99.90;;;;;;4994869;28;20023;-53
2022/06/04 05:35:55;;;;;;;4.75;1.13;;;23.70;99.90;;;;;;4994860;28;20077;-54
2022/06/04 05:38:21;;;;;;;4.03;1.50;;;23.70;99.90;;;;;;4994838;28;20042;-54
2022/06/04 05:40:47;;;;;;;4.07;1.30;;;23.70;99.90;;;;;;4994824;28;20034;-54
2022/06/04 05:43:13;;;;;;;6.40;1.98;;;23.70;99.90;;;;;;4994717;28;20026;-54
2022/06/04 05:45:38;;;;;;;4.78;1.70;;;23.70;99.90;;;;;;4994802;28;20508;-54
2022/06/04 05:48:05;;;;;;;4.88;1.42;;;23.80;99.90;;;;;;4994659;28;20525;-55
2022/06/04 05:50:31;;;;;;;3.95;1.10;;;23.80;99.90;;;;;;4994571;28;20117;-54
2022/06/04 05:52:56;;;;;;;3.28;1.08;;;23.80;99.90;;;;;;4994642;28;20105;-55
2022/06/04 05:55:22;;;;;;;3.33;1.10;;;23.80;99.90;;;;;;4994780;28;20026;-53
2022/06/04 05:57:48;;;;;;;3.50;1.38;;;23.90;99.90;;;;;;4993107;28;20121;-53
2022/06/04 06:00:15;;;;;;;3.97;1.52;;;23.90;99.90;;;;;;4994299;28;20039;-54
2022/06/04 06:02:41;;;;;;;4.35;1.38;;;23.90;99.90;;;;;;4994281;28;20026;-53
2022/06/04 06:05:07;;;;;;;4.10;1.45;;;23.90;99.90;;;;;;4994409;28;20023;-54
2022/06/04 06:07:33;;;;;;;2.25;1.00;;;24.00;99.90;;;;;;4994268;28;20026;-53
2022/06/04 06:09:58;;;;;;;4.05;0.98;;;24.00;99.90;;;;;;4994282;28;20489;-54
2022/06/04 06:12:24;;;;;;;2.50;1.10;;;24.00;99.90;;;;;;4976864;28;20105;-54
2022/06/04 06:14:50;;;;;;;6.07;1.73;;;24.00;99.90;;;;;;4994211;28;20026;-54
2022/06/04 06:17:16;;;;;;;3.97;1.15;;;24.10;99.90;;;;;;4994050;28;20061;-54
2022/06/04 06:19:42;;;;;;;4.63;2.63;;;24.10;99.90;;;;;;4994084;28;20077;-53
2022/06/04 06:22:08;;;;;;;3.47;1.42;;;24.10;99.90;;;;;;4994101;28;20485;-53
2022/06/04 06:24:34;;;;;;;3.13;1.23;;;24.10;99.90;;;;;;4993948;28;20018;-53
2022/06/04 06:27:00;;;;;;;6.05;1.75;;;24.10;99.90;;;;;;4994114;28;20026;-54
2022/06/04 06:29:28;;;;;;;5.70;2.00;;;24.10;99.90;;;;;;4994108;28;20122;-54
2022/06/04 06:31:56;;;;;;;4.85;1.55;;;24.10;99.90;;;;;;4994021;28;20065;-54
2022/06/04 06:34:22;;;;;;;;;;;24.10;99.90;;;;;;4993001;28;20037;-55
2022/06/04 06:36:48;;;;;;;4.05;1.40;;;24.20;99.90;;;;;;4993762;28;19910;-56
2022/06/04 06:39:14;;;;;;;4.80;1.50;;;24.20;99.90;;;;;;4993849;28;20030;-55
2022/06/04 06:41:40;;;;;;;4.47;2.08;;;24.20;99.90;;;;;;4992406;28;20042;-55
2022/06/04 06:44:07;;;;;;;4.13;1.85;;;24.20;99.90;;;;;;4994067;28;20382;-55
2022/06/04 06:46:36;;;;;;;5.72;2.53;;;24.30;99.90;;;;;;4993638;28;20022;-56
2022/06/04 06:49:06;;;;;;;3.92;1.75;;;24.20;99.90;;;;;;4993519;28;20547;-54
2022/06/04 06:51:39;;;;;;;4.53;2.50;;;24.20;99.90;;;;;;4993457;28;20026;-55
2022/06/04 06:54:05;;;;;;;4.65;1.80;;;24.30;99.90;;;;;;4993446;28;20042;-55
2022/06/04 06:56:38;;;;;;;5.07;1.80;;;24.30;99.90;;;;;;4993288;28;20386;-55
2022/06/04 06:59:04;;;;;;;5.40;1.98;;;24.30;99.90;;;;;;4993397;28;20034;-55
2022/06/04 07:01:31;;;;;;;5.18;2.03;;;24.30;99.90;;;;;;4993163;28;20051;-55
2022/06/04 07:03:57;;;;;;;4.13;1.95;;;24.30;99.90;;;;;;4993520;28;20027;-55
2022/06/04 07:06:51;;;;;;;4.30;1.53;;;24.40;99.90;;;;;;4993212;28;20105;-55
2022/06/04 07:09:23;;;;;;;5.38;2.00;;;24.40;99.90;;;;;;4991714;28;20380;-55
2022/06/04 07:11:49;;;;;;;4.22;2.67;;;24.40;99.90;;;;;;4991768;28;20037;-54
2022/06/04 07:14:15;;;;;;;5.18;2.25;;;24.40;99.90;;;;;;4993252;28;20126;-56
2022/06/04 07:16:42;;;;;;;5.53;2.28;;;24.50;99.90;;;;;;4992901;28;20498;-55
2022/06/04 07:19:09;;;;;;;3.90;2.00;;;24.50;99.90;;;;;;4993043;28;20045;-55
2022/06/04 07:21:36;;;;;;;3.45;1.88;;;24.50;99.90;;;;;;4993041;28;20040;-55
2022/06/04 07:24:02;;;;;;;7.18;2.33;;;24.50;99.90;;;;;;4993128;28;20015;-55
2022/06/04 07:26:28;;;;;;;4.32;2.03;;;24.50;99.90;;;;;;4992946;28;20027;-55
2022/06/04 07:28:54;;;;;;;4.40;1.77;;;24.60;99.90;;;;;;4992963;28;20133;-54
2022/06/04 07:31:20;;;;;;;4.97;2.65;;;24.60;99.90;;;;;;4992595;28;20121;-55
2022/06/04 07:33:47;;;;;;;3.85;1.50;;;24.60;99.90;;;;;;4992568;28;20028;-55
2022/06/04 07:36:23;;;;;;;5.18;1.92;;;24.70;99.90;;;;;;4992648;28;20296;-55
2022/06/04 07:38:48;;;;;;;5.35;2.88;;;24.70;99.90;;;;;;4992629;28;20034;-55
2022/06/04 07:41:26;;;;;;;4.57;2.50;;;24.70;99.90;;;;;;4991922;28;20084;-54
2022/06/04 07:43:52;;;;;;;6.63;3.30;;;24.70;99.90;;;;;;4992568;28;20030;-56
2022/06/04 07:46:20;;;;;;;6.10;3.00;;;24.70;99.90;;;;;;4992434;28;20029;-58
2022/06/04 07:48:46;;;;;;;5.95;2.40;;;24.70;99.90;;;;;;4992549;28;20417;-56
2022/06/04 07:51:12;;;;;;;7.68;2.67;;;24.80;99.90;;;;;;4991069;28;20034;-53
2022/06/04 07:53:38;;;;;;;5.95;3.53;;;24.80;99.90;;;;;;4992331;28;20026;-54
2022/06/04 07:56:10;;;;;;;3.17;1.80;;;24.80;99.90;;;;;;4992194;28;20026;-53
2022/06/04 07:58:36;;;;;;;3.95;2.67;;;24.80;99.90;;;;;;4992168;28;20061;-53
2022/06/04 08:01:03;;;;;;;9.75;2.35;;;24.90;99.90;;;;;;4990982;28;20046;-53
2022/06/04 08:03:34;;;;;;;3.92;2.08;;;24.90;99.90;;;;;;4992245;28;20034;-53
2022/06/04 08:06:01;;;;;;;7.32;2.00;;;24.90;99.90;;;;;;4992400;28;20038;-53
2022/06/04 08:08:27;;;;;;;5.43;2.30;;;25.00;99.90;;;;;;4992108;28;20021;-54
2022/06/04 08:10:53;;;;;;;5.43;1.90;;;25.00;99.90;;;;;;4992293;28;20030;-53
2022/06/04 08:13:40;;;;;;;6.32;2.50;;;25.00;99.90;;;;;;4991917;28;20026;-53
2022/06/04 08:16:05;;;;;;;4.82;2.45;;;25.00;99.90;;;;;;4991669;28;20121;-53
2022/06/04 08:18:31;;;;;;;4.90;2.50;;;25.00;99.90;;;;;;4991963;28;20446;-53
2022/06/04 08:20:57;;;;;;;6.72;2.90;;;25.10;99.90;;;;;;4991954;28;20030;-53
2022/06/04 08:23:23;;;;;;;4.97;2.15;;;25.10;99.90;;;;;;4991836;28;20034;-53
2022/06/04 08:25:50;;;;;;;5.20;2.50;;;25.10;99.90;;;;;;4991947;28;20030;-52
2022/06/04 08:28:16;;;;;;;6.50;2.78;;;25.20;99.90;;;;;;4991912;28;20118;-52
2022/06/04 08:30:44;;;;;;;5.72;2.47;;;25.20;99.90;;;;;;4991937;28;20080;-53
2022/06/04 08:33:11;;;;;;;7.15;2.50;;;25.20;99.90;;;;;;4991801;28;20105;-52
2022/06/04 08:35:37;;;;;;;4.72;2.38;;;25.20;99.90;;;;;;4991934;28;20026;-54
2022/06/04 08:38:02;;;;;;;5.30;2.10;;;25.30;99.90;;;;;;4991854;28;20038;-53
2022/06/04 08:40:37;;;;;;;4.28;1.60;;;25.30;99.90;;;;;;4991744;28;20062;-54
2022/06/04 08:43:08;;;;;;;4.57;2.40;;;25.30;99.90;;;;;;4992044;28;20031;-53
2022/06/04 08:45:38;;;;;;;5.32;1.50;;;25.30;99.90;;;;;;4991960;28;20382;-53
2022/06/04 08:48:11;;;;;;;3.10;1.35;;;25.40;99.90;;;;;;4991817;28;20018;-54
2022/06/04 08:50:37;;;;;;;5.18;1.80;;;25.40;99.90;;;;;;4991627;28;20037;-53
2022/06/04 08:53:05;;;;;;;6.00;2.47;;;25.40;99.90;;;;;;4994691;28;20018;-54
2022/06/04 08:58:49;;;;;;;5.63;1.45;;;25.40;99.90;;;;;;4995545;28;20048;-53
2022/06/04 09:01:23;;;;;;;6.07;2.58;;;25.50;99.90;;;;;;4995420;28;20513;-53
2022/06/04 09:04:12;;;;;;;2.40;1.60;;;25.50;99.90;;;;;;4995332;28;20030;-53
2022/06/04 09:06:56;;;;;;;3.75;1.75;;;25.50;99.90;;;;;;4995645;28;20030;-53
2022/06/04 09:09:25;;;;;;;4.10;1.70;;;25.60;99.90;;;;;;4995356;28;20034;-54
2022/06/04 09:12:03;;;;;;;5.65;1.83;;;25.60;99.90;;;;;;4995116;28;20035;-53
2022/06/04 09:14:44;;;;;;;4.97;1.75;;;25.60;99.90;;;;;;4995263;28;20145;-54
2022/06/04 09:17:18;;;;;;;2.78;1.33;;;25.70;99.90;;;;;;4994847;28;20030;-53
2022/06/04 09:19:51;;;;;;;4.93;1.98;;;25.70;99.90;;;;;;4995076;28;20026;-54
2022/06/04 09:22:40;;;;;;;4.05;1.50;;;25.70;99.90;;;;;;4995245;28;20027;-54
2022/06/04 09:25:12;;;;;;;5.20;1.92;;;25.70;99.90;;;;;;4995098;28;20027;-54
2022/06/04 09:27:59;;;;;;;5.13;1.30;;;25.70;99.90;;;;;;4995155;28;20026;-54
2022/06/04 09:30:42;;;;;;;4.70;1.85;;;25.70;99.90;;;;;;4994795;28;20423;-54
2022/06/04 09:33:32;;;;;;;5.10;1.55;;;25.70;99.90;;;;;;4995117;28;20470;-54
2022/06/04 09:35:58;;;;;;;3.58;1.33;;;25.60;99.90;;;;;;4994747;28;20371;-53
2022/06/04 09:38:33;;;;;;;6.15;1.75;;;25.50;99.90;;;;;;4993379;28;20389;-53
2022/06/04 09:41:18;;;;;;;5.32;1.88;;;25.40;99.90;;;;;;4994786;28;20109;-53
2022/06/04 09:44:00;;;;;;;4.72;1.50;;;25.30;99.90;;;;;;4994589;28;20033;-52
2022/06/04 09:46:26;;;;;;;7.32;2.28;;;25.10;99.90;;;;;;4994634;28;20054;-53
2022/06/04 09:48:53;;;;;;;9.10;2.03;;;25.10;99.90;;;;;;4994512;28;20023;-54
2022/06/04 09:51:25;;;;;;;9.52;2.20;;;25.10;99.90;;;;;;4994417;28;20030;-53
2022/06/04 09:54:03;;;;;;;6.22;3.30;;;25.00;99.90;;;;;;4994513;28;20376;-53
2022/06/04 09:56:40;;;;;;;8.02;2.65;;;25.00;99.90;;;;;;4994380;28;20319;-53
2022/06/04 09:59:19;;;;;;;7.33;2.33;;;24.90;99.90;;;;;;4994780;28;20034;-53
2022/06/04 10:02:01;;;;;;;7.32;1.92;;;24.90;99.90;;;;;;4995062;28;20047;-53
2022/06/04 10:04:47;;;;;;;8.90;2.05;;;24.90;99.90;;;;;;4993466;28;20030;-55
2022/06/04 10:07:16;;;;;;;9.95;2.70;;;24.90;99.90;;;;;;4994359;28;20018;-55
2022/06/04 10:09:58;;;;;;;9.10;1.92;;;25.00;99.90;;;;;;4993303;28;20085;-54
2022/06/04 10:15:49;;;;;;;8.25;1.67;;;24.90;99.90;;;;;;4994714;28;20553;-53
2022/06/04 10:18:31;;;;;;;8.70;2.25;;;24.90;99.90;;;;;;4994310;28;20050;-53
2022/06/04 10:20:59;;;;;;;6.88;1.88;;;24.90;99.90;;;;;;4992889;28;20026;-53
2022/06/04 10:23:25;;;;;;;;;;;24.90;99.90;;;;;;4994230;28;20037;-54
2022/06/04 10:26:09;;;;;;;9.02;1.80;;;24.90;99.90;;;;;;4993971;28;20272;-52
2022/06/04 10:28:50;;;;;;;12.55;2.40;;;25.00;99.90;;;;;;4993759;28;20027;-53
2022/06/04 10:31:21;;;;;;;5.43;1.33;;;25.00;99.90;;;;;;4993948;28;20037;-53
2022/06/04 10:34:27;;;;;;;5.68;1.83;;;25.00;99.90;;;;;;4993736;28;20034;-52
2022/06/04 10:37:32;;;;;;;7.22;2.80;;;25.00;99.90;;;;;;4993214;28;20506;-53
2022/06/04 10:40:24;;;;;;;6.43;2.85;;;24.90;99.90;;;;;;4993700;28;20030;-53
2022/06/04 10:43:11;;;;;;;7.82;4.18;;;24.90;99.90;;;;;;4990544;28;20525;-53
2022/06/04 10:45:39;;;;;;;13.77;5.07;;;24.90;99.90;;;;;;4993650;28;20034;-52
2022/06/04 10:48:11;;;;;;;10.02;4.30;;;24.80;99.90;;;;;;4993391;28;20482;-52
2022/06/04 10:53:44;;;;;;;12.15;6.40;;;24.70;99.90;;;;;;4993736;28;20061;-54
2022/06/04 10:56:18;;;;;;;16.25;8.10;;;24.70;99.90;;;;;;4993540;28;20029;-53
2022/06/04 10:58:51;;;;;;;11.93;5.75;;;24.70;99.90;;;;;;4993418;28;20406;-53
2022/06/04 11:01:39;;;;;;;9.52;4.85;;;24.70;99.90;;;;;;4992993;28;20042;-53
2022/06/04 11:04:26;;;;;;;11.18;4.22;;;24.70;99.90;;;;;;4993178;28;20026;-53
2022/06/04 11:07:19;;;;;;;12.77;4.63;;;24.70;99.90;;;;;;4993210;28;20033;-54
2022/06/04 11:09:45;;;;;;;12.80;6.45;;;24.70;99.90;;;;;;4993205;28;20471;-55
2022/06/04 11:12:30;;;;;;;17.30;7.88;;;24.60;99.90;;;;;;4993058;28;20026;-53
2022/06/04 11:15:03;;;;;;;15.68;7.95;;;24.50;99.90;;;;;;4992545;28;20019;-54
2022/06/04 11:17:43;;;;;;;13.75;5.50;;;24.40;99.90;;;;;;4992852;28;20066;-54
2022/06/04 11:20:21;;;;;;;10.98;5.97;;;24.30;99.90;;;;;;4992914;28;20026;-54
2022/06/04 11:22:57;;;;;;;;;;;24.30;99.90;;;;;;4993513;28;20023;-54
2022/06/04 11:25:32;;;;;;;13.02;5.75;;;24.40;99.90;;;;;;4992876;28;19905;-54
2022/06/04 11:28:02;;;;;;;16.85;5.05;;;24.40;99.90;;;;;;4992765;28;20050;-54
2022/06/04 11:30:46;;;;;;;13.68;4.00;;;24.50;99.90;;;;;;4992836;28;20026;-54
2022/06/04 11:33:30;;;;;;;10.65;3.40;;;24.50;99.90;;;;;;4992748;28;20185;-54
2022/06/04 11:36:22;;;;;;;12.35;2.85;;;24.50;99.90;;;;;;4992570;28;20026;-54
2022/06/04 11:38:53;;;;;;;12.23;2.72;;;24.50;99.90;;;;;;4992620;28;20541;-54
2022/06/04 11:41:37;;;;;;;9.35;2.75;;;24.50;99.90;;;;;;4992460;28;20032;-54
2022/06/04 11:44:09;;;;;;;11.80;2.80;;;24.50;99.90;;;;;;4992342;28;20030;-54
2022/06/04 11:47:16;;;;;;;10.88;3.85;;;24.50;99.90;;;;;;4992390;28;20046;-54
2022/06/04 11:50:02;;;;;;;15.02;4.65;;;24.40;99.90;;;;;;4936888;28;20044;-54
2022/06/04 11:52:32;;;;;;;11.90;4.35;;;24.40;99.90;;;;;;4988000;28;20485;-54
2022/06/04 11:55:16;;;;;;;17.75;5.72;;;24.40;99.90;;;;;;4992331;28;20037;-54
2022/06/04 11:58:03;;;;;;;18.00;6.03;;;24.40;99.90;;;;;;4992280;28;20038;-54
2022/06/04 12:00:36;;;;;;;12.73;5.88;;;24.40;99.90;;;;;;4992029;28;20108;-54
2022/06/04 12:03:40;;;;;;;13.80;4.45;;;24.40;99.90;;;;;;4992490;28;20023;-54
2022/06/04 12:06:30;;;;;;;13.82;3.45;;;24.50;99.90;;;;;;4913059;29;20052;-54
2022/06/04 12:09:26;;;;;;;10.93;5.13;;;24.50;99.90;;;;;;4988445;28;20478;-55
2022/06/04 12:12:10;;;;;;;18.20;7.80;;;24.50;99.90;;;;;;4991821;28;20029;-55
2022/06/04 12:14:42;;;;;;;19.48;8.15;;;24.50;99.90;;;;;;4991974;28;20536;-54
2022/06/04 12:17:14;;;;;;;16.35;7.60;;;24.50;99.90;;;;;;4992107;28;20039;-55
2022/06/04 12:25:42;;;;;;;15.23;5.22;;;24.40;99.90;;;;;;4992268;28;20445;-54
2022/06/04 12:28:26;;;;;;;12.68;4.55;;;24.40;99.90;;;;;;4991668;28;20026;-55
2022/06/04 12:30:52;;;;;;;12.10;4.43;;;24.40;99.90;;;;;;4990718;28;20053;-55
2022/06/04 12:33:32;;;;;;;18.25;3.65;;;24.40;99.90;;;;;;4991979;28;20113;-55
2022/06/04 12:36:04;;;;;;;12.07;3.42;;;24.40;99.90;;;;;;4989749;28;20026;-54
2022/06/04 12:38:39;;;;;;;12.18;3.80;;;24.30;99.90;;;;;;4989552;28;20077;-55
2022/06/04 12:41:06;;;;;;;16.05;4.43;;;24.40;99.90;;;;;;4991848;28;20030;-54
2022/06/04 12:43:37;;;;;;;16.63;5.68;;;24.40;99.90;;;;;;4991799;28;20093;-54
2022/06/04 12:46:21;;;;;;;17.48;6.43;;;24.50;99.90;;;;;;4990699;28;20032;-54
2022/06/04 12:48:59;;;;;;;15.25;5.32;;;24.50;99.90;;;;;;4991703;28;20064;-54
2022/06/04 12:51:25;;;;;;;;;;;24.50;99.90;;;;;;4992032;28;20031;-52
2022/06/04 12:54:19;;;;;;;12.93;4.75;;;24.50;99.90;;;;;;4991942;28;19940;-54
2022/06/04 12:56:56;;;;;;;16.38;4.22;;;24.50;99.90;;;;;;4991565;28;20378;-50
2022/06/04 12:59:39;;;;;;;19.92;4.00;;;24.60;99.90;;;;;;4991687;28;20041;-55
2022/06/04 13:02:27;;;;;;;14.45;3.47;;;24.60;99.90;;;;;;4983764;28;20042;-53
2022/06/04 13:05:13;;;;;;;14.30;4.00;;;24.60;99.90;;;;;;4976704;28;20027;-53
2022/06/04 13:08:08;;;;;;;20.52;12.57;;;24.70;99.90;;;;;;4976762;28;20041;-54
2022/06/04 13:10:43;;;;;;;35.38;20.45;;;24.70;99.90;;;;;;4973471;28;20050;-54
2022/06/04 13:13:24;;;;;;;63.92;39.92;;;24.70;99.90;;;;;;4983422;28;20034;-52
2022/06/04 13:15:56;;;;;;;49.15;26.83;;;24.70;99.90;;;;;;4978975;28;20085;-53
2022/06/04 13:18:28;;;;;;;28.38;12.55;;;24.80;99.90;;;;;;4983928;28;20517;-54
2022/06/04 13:21:00;;;;;;;16.10;5.55;;;24.80;99.90;;;;;;4983311;28;20433;-53
2022/06/04 13:23:33;;;;;;;10.50;3.75;;;24.80;99.90;;;;;;4990849;28;20034;-54
2022/06/04 13:26:31;;;;;;;16.42;4.20;;;24.70;99.90;;;;;;4973946;28;20033;-54
2022/06/04 13:29:02;;;;;;;20.15;5.93;;;24.70;99.90;;;;;;4987874;28;20075;-54
2022/06/04 13:31:33;;;;;;;11.75;5.65;;;24.80;99.90;;;;;;4988874;28;20495;-50
2022/06/04 13:34:14;;;;;;;14.95;5.55;;;24.80;99.90;;;;;;4990682;28;20031;-53
2022/06/04 13:36:40;;;;;;;12.65;4.97;;;24.80;99.90;;;;;;4987648;28;20042;-53